createdAt,value
2019-06-27T00:02:02.211Z,96694.88
2019-06-27T00:04:32.509Z,96692.31
2019-06-27T00:07:02.913Z,96688.66
2019-06-27T00:09:33.237Z,96690.75
2019-06-27T00:12:03.483Z,96682.03
2019-06-27T00:14:33.829Z,96682.35
2019-06-27T00:17:04.508Z,96680.62
2019-06-27T00:19:34.839Z,96683.39
2019-06-27T00:22:05.312Z,96690.41
2019-06-27T00:24:35.543Z,96691.13
2019-06-27T00:27:05.814Z,96686.26
2019-06-27T00:29:36.201Z,96684.99
2019-06-27T00:32:10.824Z,96675.70
2019-06-27T00:34:41.105Z,96678.51
2019-06-27T00:37:11.349Z,96680.44
2019-06-27T00:39:41.874Z,96678.37
2019-06-27T00:42:12.193Z,96675.48
2019-06-27T00:44:42.792Z,96675.56
2019-06-27T00:47:13.069Z,96677.91
2019-06-27T00:49:43.362Z,96679.98
2019-06-27T00:52:13.614Z,96673.83
2019-06-27T00:54:43.836Z,96670.44
2019-06-27T00:57:14.972Z,96684.50
2019-06-27T00:59:45.467Z,96685.66
2019-06-27T01:02:15.691Z,96689.33
2019-06-27T01:04:46.212Z,96700.41
2019-06-27T01:07:16.462Z,96699.84
2019-06-27T01:09:46.707Z,96694.22
2019-06-27T01:12:16.975Z,96698.48
2019-06-27T01:14:47.326Z,96697.19
2019-06-27T01:17:18.048Z,96692.61
2019-06-27T01:19:48.269Z,96696.56
2019-06-27T01:22:18.539Z,96699.18
2019-06-27T01:24:48.826Z,96710.56
2019-06-27T01:27:29.619Z,96716.33
2019-06-27T01:29:51.049Z,96718.18
2019-06-27T01:32:21.310Z,96718.11
2019-06-27T01:34:51.639Z,96710.31
2019-06-27T01:37:21.872Z,96718.09
2019-06-27T01:39:52.181Z,96721.20
2019-06-27T01:42:22.454Z,96719.53
2019-06-27T01:45:06.747Z,96715.52
2019-06-27T01:47:36.960Z,96716.63
2019-06-27T01:50:07.438Z,96715.00
2019-06-27T01:52:37.734Z,96710.90
2019-06-27T01:55:08.025Z,96710.59
2019-06-27T01:57:46.739Z,96706.32
2019-06-27T02:00:10.586Z,96707.84
2019-06-27T02:02:40.938Z,96706.14
2019-06-27T02:05:11.334Z,96706.45
2019-06-27T02:07:41.612Z,96711.91
2019-06-27T02:10:11.838Z,96711.41
2019-06-27T02:12:42.470Z,96706.68
2019-06-27T02:15:13.603Z,96714.20
2019-06-27T02:17:43.978Z,96714.07
2019-06-27T02:20:15.481Z,96709.43
2019-06-27T02:22:45.855Z,96719.02
2019-06-27T02:25:16.465Z,96725.48
2019-06-27T02:28:02.606Z,96728.52
2019-06-27T02:30:26.086Z,96719.61
2019-06-27T02:32:56.318Z,96720.78
2019-06-27T02:35:26.579Z,96720.78
2019-06-27T02:37:58.056Z,96716.01
2019-06-27T02:40:38.099Z,96723.61
2019-06-27T02:43:08.369Z,96730.17
2019-06-27T02:45:38.606Z,96726.55
2019-06-27T02:48:08.829Z,96726.44
2019-06-27T02:50:39.160Z,96729.02
2019-06-27T02:53:28.978Z,96724.03
2019-06-27T02:55:59.319Z,96725.34
2019-06-27T02:58:32.275Z,96727.45
2019-06-27T03:01:01.500Z,96722.31
2019-06-27T03:03:31.815Z,96729.36
2019-06-27T03:06:02.024Z,96724.89
2019-06-27T03:08:34.776Z,96718.84
2019-06-27T03:11:05.125Z,96715.52
2019-06-27T03:13:35.369Z,96706.11
2019-06-27T03:16:05.621Z,96716.94
2019-06-27T03:18:35.940Z,96719.09
2019-06-27T03:21:06.444Z,96711.86
2019-06-27T03:23:36.723Z,96711.99
2019-06-27T03:26:07.012Z,96711.80
2019-06-27T03:28:50.973Z,96718.84
2019-06-27T03:31:09.117Z,96714.16
2019-06-27T03:33:48.940Z,96718.95
2019-06-27T03:36:19.229Z,96724.64
2019-06-27T03:38:49.556Z,96718.84
2019-06-27T03:41:19.849Z,96717.73
2019-06-27T03:43:50.126Z,96732.25
2019-06-27T03:46:20.399Z,96732.59
2019-06-27T03:48:50.957Z,96741.30
2019-06-27T03:51:21.275Z,96735.30
2019-06-27T03:53:51.660Z,96725.04
2019-06-27T03:56:21.989Z,96735.12
2019-06-27T03:59:10.777Z,96740.70
2019-06-27T04:01:24.223Z,96734.81
2019-06-27T04:03:55.871Z,96741.05
2019-06-27T04:06:26.158Z,96739.33
2019-06-27T04:08:56.499Z,96736.42
2019-06-27T04:11:26.761Z,96736.25
2019-06-27T04:13:57.014Z,96740.67
2019-06-27T04:16:31.570Z,96739.77
2019-06-27T04:19:01.847Z,96739.00
2019-06-27T04:21:32.108Z,96740.88
2019-06-27T04:24:02.433Z,96736.08
2019-06-27T04:26:32.769Z,96741.09
2019-06-27T04:29:03.141Z,96737.66
2019-06-27T04:31:33.707Z,96731.92
2019-06-27T04:34:03.912Z,96737.31
2019-06-27T04:36:34.217Z,96737.34
2019-06-27T04:39:05.048Z,96740.56
2019-06-27T04:41:35.326Z,96739.48
2019-06-27T04:44:05.576Z,96739.30
2019-06-27T04:46:39.541Z,96737.51
2019-06-27T04:49:13.365Z,96742.09
2019-06-27T04:51:41.785Z,96739.82
2019-06-27T04:54:12.050Z,96740.19
2019-06-27T04:56:42.327Z,96743.39
2019-06-27T04:59:12.928Z,96746.19
2019-06-27T05:01:43.169Z,96742.61
2019-06-27T05:04:13.465Z,96740.50
2019-06-27T05:06:43.741Z,96743.27
2019-06-27T05:09:14.017Z,96739.09
2019-06-27T05:11:44.285Z,96743.83
2019-06-27T05:14:14.893Z,96737.38
2019-06-27T05:16:45.351Z,96739.59
2019-06-27T05:19:15.633Z,96738.16
2019-06-27T05:21:45.952Z,96734.86
2019-06-27T05:24:16.244Z,96745.23
2019-06-27T05:26:47.885Z,96736.38
2019-06-27T05:29:18.189Z,96738.30
2019-06-27T05:31:48.467Z,96736.88
2019-06-27T05:34:18.663Z,96743.10
2019-06-27T05:36:48.935Z,96738.27
2019-06-27T05:39:19.285Z,96739.09
2019-06-27T05:41:52.081Z,96741.56
2019-06-27T05:44:22.382Z,96745.54
2019-06-27T05:46:52.584Z,96756.41
2019-06-27T05:49:22.833Z,96755.61
2019-06-27T05:51:53.091Z,96764.19
2019-06-27T05:54:23.645Z,96765.89
2019-06-27T05:56:53.847Z,96758.84
2019-06-27T05:59:24.121Z,96762.06
2019-06-27T06:01:55.785Z,96760.48
2019-06-27T06:04:25.977Z,96757.61
2019-06-27T06:06:56.335Z,96769.14
2019-06-27T06:09:27.512Z,96767.48
2019-06-27T06:11:58.773Z,96777.59
2019-06-27T06:14:29.521Z,96773.60
2019-06-27T06:16:59.868Z,96769.17
2019-06-27T06:19:30.110Z,96770.83
2019-06-27T06:22:00.390Z,96767.27
2019-06-27T06:24:33.330Z,96767.70
2019-06-27T06:27:03.654Z,96779.87
2019-06-27T06:29:34.493Z,96778.72
2019-06-27T06:32:04.809Z,96778.17
2019-06-27T06:34:35.120Z,96771.88
2019-06-27T06:37:08.053Z,96773.03
2019-06-27T06:39:37.269Z,96772.34
2019-06-27T06:42:07.797Z,96778.56
2019-06-27T06:44:38.046Z,96785.70
2019-06-27T06:47:08.277Z,96788.91
2019-06-27T06:49:38.547Z,96782.16
2019-06-27T06:52:08.804Z,96776.25
2019-06-27T06:54:39.095Z,96786.99
2019-06-27T06:57:10.642Z,96784.43
2019-06-27T06:59:40.954Z,96781.18
2019-06-27T07:02:11.210Z,96788.88
2019-06-27T07:04:41.513Z,96793.94
2019-06-27T07:07:13.212Z,96796.17
2019-06-27T07:09:49.699Z,96808.09
2019-06-27T07:12:19.915Z,96801.79
2019-06-27T07:14:50.262Z,96804.58
2019-06-27T07:17:20.655Z,96807.31
2019-06-27T07:19:50.840Z,96808.24
2019-06-27T07:22:21.602Z,96812.49
2019-06-27T07:24:51.927Z,96812.51
2019-06-27T07:27:22.205Z,96813.41
2019-06-27T07:29:52.437Z,96820.28
2019-06-27T07:32:22.644Z,96820.88
2019-06-27T07:34:52.881Z,96832.73
2019-06-27T07:37:23.402Z,96824.62
2019-06-27T07:39:53.696Z,96827.91
2019-06-27T07:42:23.964Z,96830.88
2019-06-27T07:44:54.277Z,96823.17
2019-06-27T07:47:24.496Z,96821.95
2019-06-27T07:49:55.169Z,96822.14
2019-06-27T07:52:25.820Z,96822.29
2019-06-27T07:54:56.046Z,96815.36
2019-06-27T07:57:26.335Z,96837.27
2019-06-27T07:59:56.539Z,96824.77
2019-06-27T08:02:26.917Z,96817.64
2019-06-27T08:04:57.491Z,96821.27
2019-06-27T08:07:27.773Z,96819.81
2019-06-27T08:09:58.058Z,96816.90
2019-06-27T08:12:29.305Z,96815.51
2019-06-27T08:14:59.574Z,96812.03
2019-06-27T08:17:29.893Z,96822.02
2019-06-27T08:20:01.453Z,96819.30
2019-06-27T08:22:31.810Z,96817.89
2019-06-27T08:25:02.101Z,96812.76
2019-06-27T08:27:32.307Z,96812.20
2019-06-27T08:30:02.596Z,96818.25
2019-06-27T08:32:50.316Z,96811.28
2019-06-27T08:35:20.527Z,96813.06
2019-06-27T08:37:50.826Z,96813.64
2019-06-27T08:40:21.109Z,96819.73
2019-06-27T08:42:52.449Z,96818.00
2019-06-27T08:45:27.495Z,96811.64
2019-06-27T08:47:57.708Z,96812.89
2019-06-27T08:50:28.031Z,96809.30
2019-06-27T08:53:01.260Z,96810.41
2019-06-27T08:55:30.452Z,96804.38
2019-06-27T08:58:00.791Z,96804.98
2019-06-27T09:00:31.351Z,96810.02
2019-06-27T09:03:01.745Z,96811.86
2019-06-27T09:05:32.085Z,96811.73
2019-06-27T09:08:05.432Z,96813.34
2019-06-27T09:10:35.781Z,96810.38
2019-06-27T09:13:06.568Z,96813.84
2019-06-27T09:15:36.895Z,96812.78
2019-06-27T09:18:07.231Z,96813.36
2019-06-27T09:20:37.516Z,96815.48
2019-06-27T09:23:07.841Z,96815.54
2019-06-27T09:25:38.273Z,96803.92
2019-06-27T09:28:08.686Z,96806.20
2019-06-27T09:30:38.957Z,96805.22
2019-06-27T09:33:09.249Z,96802.55
2019-06-27T09:35:39.499Z,96809.47
2019-06-27T09:38:09.790Z,96797.12
2019-06-27T09:40:41.241Z,96795.17
2019-06-27T09:43:20.037Z,96796.42
2019-06-27T09:45:50.323Z,96793.03
2019-06-27T09:48:20.574Z,96798.05
2019-06-27T09:50:50.846Z,96791.13
2019-06-27T09:53:21.083Z,96799.39
2019-06-27T09:55:56.659Z,96791.99
2019-06-27T09:58:26.935Z,96784.86
2019-06-27T10:00:57.165Z,96794.53
2019-06-27T10:03:27.504Z,96797.50
2019-06-27T10:05:57.745Z,96790.73
2019-06-27T10:08:29.309Z,96788.64
2019-06-27T10:10:59.686Z,96786.61
2019-06-27T10:13:29.891Z,96788.17
2019-06-27T10:16:01.658Z,96777.66
2019-06-27T10:18:31.924Z,96774.55
2019-06-27T10:21:02.162Z,96778.94
2019-06-27T10:23:32.451Z,96771.67
2019-06-27T10:26:02.747Z,96777.76
2019-06-27T10:28:32.984Z,96774.02
2019-06-27T10:31:03.205Z,96775.34
2019-06-27T10:33:33.521Z,96778.92
2019-06-27T10:36:03.828Z,96775.17
2019-06-27T10:38:34.049Z,96770.19
2019-06-27T10:41:06.767Z,96767.25
2019-06-27T10:43:37.036Z,96775.25
2019-06-27T10:46:07.283Z,96775.25
2019-06-27T10:48:37.555Z,96772.30
2019-06-27T10:51:07.794Z,96767.30
2019-06-27T10:53:38.057Z,96765.05
2019-06-27T10:56:13.621Z,96771.58
2019-06-27T10:58:43.876Z,96767.25
2019-06-27T11:01:14.126Z,96764.05
2019-06-27T11:03:44.502Z,96760.25
2019-06-27T11:06:14.840Z,96765.00
2019-06-27T11:08:51.012Z,96760.22
2019-06-27T11:11:21.248Z,96755.89
2019-06-27T11:13:58.770Z,96752.67
2019-06-27T11:16:23.563Z,96751.19
2019-06-27T11:18:53.818Z,96755.82
2019-06-27T11:21:25.526Z,96745.53
2019-06-27T11:23:55.794Z,96755.83
2019-06-27T11:26:26.158Z,96759.59
2019-06-27T11:28:56.641Z,96751.55
2019-06-27T11:31:26.902Z,96747.67
2019-06-27T11:33:57.250Z,96741.23
2019-06-27T11:36:29.380Z,96743.30
2019-06-27T11:38:59.638Z,96740.30
2019-06-27T11:41:29.899Z,96738.71
2019-06-27T11:44:00.207Z,96736.58
2019-06-27T11:46:30.595Z,96731.06
2019-06-27T11:49:01.051Z,96736.33
2019-06-27T11:51:34.919Z,96727.27
2019-06-27T11:54:05.110Z,96725.85
2019-06-27T11:56:35.376Z,96732.70
2019-06-27T11:59:05.688Z,96722.50
2019-06-27T12:01:35.952Z,96721.63
2019-06-27T12:04:06.559Z,96724.20
2019-06-27T12:06:36.764Z,96723.05
2019-06-27T12:09:07.628Z,96726.40
2019-06-27T12:11:37.866Z,96732.47
2019-06-27T12:14:08.217Z,96721.64
2019-06-27T12:16:42.270Z,96719.06
2019-06-27T12:19:12.508Z,96714.30
2019-06-27T12:21:42.812Z,96712.14
2019-06-27T12:24:14.224Z,96717.90
2019-06-27T12:26:44.468Z,96715.05
2019-06-27T12:29:26.525Z,96709.05
2019-06-27T12:31:56.758Z,96717.08
2019-06-27T12:34:26.999Z,96715.27
2019-06-27T12:36:57.879Z,96709.61
2019-06-27T12:39:28.410Z,96704.39
2019-06-27T12:41:58.701Z,96710.86
2019-06-27T12:44:29.202Z,96705.05
2019-06-27T12:47:00.543Z,96702.27
2019-06-27T12:49:44.865Z,96704.30
2019-06-27T12:52:02.809Z,96704.32
2019-06-27T12:54:33.059Z,96698.77
2019-06-27T12:57:03.276Z,96688.67
2019-06-27T12:59:33.855Z,96690.74
2019-06-27T13:02:04.215Z,96693.30
2019-06-27T13:04:34.441Z,96682.94
2019-06-27T13:07:04.780Z,96681.95
2019-06-27T13:09:34.953Z,96674.12
2019-06-27T13:12:05.263Z,96668.69
2019-06-27T13:14:37.860Z,96661.38
2019-06-27T13:17:08.087Z,96669.52
2019-06-27T13:19:39.806Z,96665.73
2019-06-27T13:22:10.204Z,96663.97
2019-06-27T13:24:40.504Z,96670.60
2019-06-27T13:27:11.140Z,96663.50
2019-06-27T13:29:41.357Z,96661.48
2019-06-27T13:32:11.660Z,96666.84
2019-06-27T13:34:41.948Z,96659.59
2019-06-27T13:37:12.389Z,96662.81
2019-06-27T13:39:42.644Z,96664.24
2019-06-27T13:42:15.214Z,96650.23
2019-06-27T13:44:45.473Z,96658.05
2019-06-27T13:47:15.722Z,96657.25
2019-06-27T13:49:45.944Z,96656.45
2019-06-27T13:52:16.162Z,96659.53
2019-06-27T13:54:51.154Z,96654.11
2019-06-27T13:57:21.408Z,96655.84
2019-06-27T13:59:51.693Z,96652.09
2019-06-27T14:02:22.035Z,96663.23
2019-06-27T14:04:57.072Z,96657.54
2019-06-27T14:07:24.320Z,96645.88
2019-06-27T14:09:57.447Z,96641.50
2019-06-27T14:12:27.918Z,96644.75
2019-06-27T14:15:00.004Z,96648.27
2019-06-27T14:17:30.809Z,96647.69
2019-06-27T14:20:01.061Z,96642.55
2019-06-27T14:22:38.818Z,96649.23
2019-06-27T14:25:11.224Z,96634.73
2019-06-27T14:27:41.506Z,96633.34
2019-06-27T14:30:11.832Z,96641.83
2019-06-27T14:32:42.125Z,96633.73
2019-06-27T14:35:16.302Z,96629.50
2019-06-27T14:37:47.825Z,96630.76
2019-06-27T14:40:20.075Z,96628.22
2019-06-27T14:42:53.962Z,96621.25
2019-06-27T14:45:24.233Z,96625.51
2019-06-27T14:47:54.556Z,96618.85
2019-06-27T14:50:26.279Z,96618.44
2019-06-27T14:52:56.605Z,96617.64
2019-06-27T14:55:26.856Z,96616.09
2019-06-27T14:57:57.484Z,96617.69
2019-06-27T15:00:29.146Z,96618.70
2019-06-27T15:03:01.686Z,96614.92
2019-06-27T15:05:33.593Z,96618.45
2019-06-27T15:08:06.199Z,96617.39
2019-06-27T15:10:41.749Z,96606.71
2019-06-27T15:13:12.164Z,96610.61
2019-06-27T15:15:42.597Z,96606.50
2019-06-27T15:18:16.370Z,96601.17
2019-06-27T15:20:47.059Z,96597.89
2019-06-27T15:23:18.957Z,96596.66
2019-06-27T15:25:49.334Z,96596.58
2019-06-27T15:28:19.713Z,96590.91
2019-06-27T15:30:50.014Z,96595.20
2019-06-27T15:33:20.280Z,96590.66
2019-06-27T15:35:52.297Z,96589.18
2019-06-27T15:38:27.046Z,96583.63
2019-06-27T15:40:57.349Z,96587.28
2019-06-27T15:43:27.542Z,96583.25
2019-06-27T15:46:00.958Z,96581.67
2019-06-27T15:48:31.299Z,96580.40
2019-06-27T15:51:01.533Z,96579.55
2019-06-27T15:53:33.346Z,96580.94
2019-06-27T15:56:03.536Z,96574.98
2019-06-27T15:58:33.764Z,96575.94
2019-06-27T16:01:05.734Z,96573.65
2019-06-27T16:03:35.966Z,96567.88
2019-06-27T16:06:11.073Z,96572.08
2019-06-27T16:08:40.408Z,96563.70
2019-06-27T16:11:10.777Z,96569.45
2019-06-27T16:14:13.550Z,96555.42
2019-06-27T16:20:14.181Z,96561.27
2019-06-27T16:22:44.449Z,96557.16
2019-06-27T16:25:26.919Z,96557.38
2019-06-27T16:28:26.923Z,96564.44
2019-06-27T16:31:01.339Z,96565.59
2019-06-27T16:33:31.647Z,96556.42
2019-06-27T16:36:01.941Z,96562.38
2019-06-27T16:38:32.187Z,96559.48
2019-06-27T16:41:05.274Z,96567.73
2019-06-27T16:43:37.153Z,96567.20
2019-06-27T16:46:09.508Z,96563.16
2019-06-27T16:48:41.923Z,96561.97
2019-06-27T16:51:14.172Z,96557.75
2019-06-27T16:53:47.214Z,96562.50
2019-06-27T16:56:20.149Z,96565.55
2019-06-27T16:58:51.324Z,96567.81
2019-06-27T17:01:33.462Z,96565.84
2019-06-27T17:04:03.711Z,96567.20
2019-06-27T17:06:41.931Z,96568.08
2019-06-27T17:09:07.114Z,96573.05
2019-06-27T17:11:39.406Z,96581.48
2019-06-27T17:14:09.659Z,96582.12
2019-06-27T17:16:40.371Z,96577.84
2019-06-27T17:19:10.580Z,96578.28
2019-06-27T17:21:43.570Z,96577.09
2019-06-27T17:24:13.911Z,96571.02
2019-06-27T17:26:46.449Z,96576.82
2019-06-27T17:29:20.394Z,96577.61
2019-06-27T17:31:54.377Z,96582.02
2019-06-27T17:34:24.670Z,96578.22
2019-06-27T17:36:58.379Z,96573.48
2019-06-27T17:39:34.122Z,96579.08
2019-06-27T17:42:04.529Z,96578.64
2019-06-27T17:44:34.744Z,96583.81
2019-06-27T17:47:05.080Z,96589.59
2019-06-27T17:49:58.999Z,96594.62
2019-06-27T17:52:31.405Z,96593.36
2019-06-27T17:55:01.733Z,96594.91
2019-06-27T17:57:32.046Z,96587.59
2019-06-27T18:00:02.411Z,96594.95
2019-06-27T18:02:34.392Z,96595.30
2019-06-27T18:05:04.799Z,96592.72
2019-06-27T18:07:36.155Z,96598.34
2019-06-27T18:10:06.469Z,96594.23
2019-06-27T18:12:36.745Z,96591.83
2019-06-27T18:15:10.711Z,96601.36
2019-06-27T18:17:41.006Z,96599.39
2019-06-27T18:20:11.237Z,96601.72
2019-06-27T18:22:42.811Z,96599.73
2019-06-27T18:25:13.110Z,96602.31
2019-06-27T18:27:45.984Z,96598.08
2019-06-27T18:30:20.799Z,96600.56
2019-06-27T18:32:51.156Z,96598.88
2019-06-27T18:35:24.247Z,96600.19
2019-06-27T18:37:55.659Z,96593.57
2019-06-27T18:40:26.021Z,96605.78
2019-06-27T18:43:02.840Z,96599.59
2019-06-27T18:45:33.184Z,96599.61
2019-06-27T18:48:04.691Z,96606.95
2019-06-27T18:50:36.593Z,96605.92
2019-06-27T18:53:06.817Z,96607.13
2019-06-27T18:55:37.072Z,96605.19
2019-06-27T18:58:19.781Z,96613.93
2019-06-27T19:03:31.695Z,96616.14
2019-06-27T19:06:01.964Z,96621.85
2019-06-27T19:08:32.269Z,96620.80
2019-06-27T19:11:06.952Z,96621.36
2019-06-27T19:13:37.313Z,96621.34
2019-06-27T19:16:07.641Z,96628.00
2019-06-27T19:18:53.740Z,96626.81
2019-06-27T19:21:51.486Z,96623.22
2019-06-27T19:24:49.619Z,96634.51
2019-06-27T19:27:20.210Z,96635.52
2019-06-27T19:29:50.807Z,96647.77
2019-06-27T19:32:21.053Z,96638.23
2019-06-27T19:34:51.382Z,96650.02
2019-06-27T19:37:21.718Z,96656.02
2019-06-27T19:39:52.236Z,96655.63
2019-06-27T19:42:22.507Z,96656.32
2019-06-27T19:44:52.831Z,96655.49
2019-06-27T19:47:23.076Z,96658.65
2019-06-27T19:49:53.363Z,96652.71
2019-06-27T19:52:29.783Z,96656.91
2019-06-27T19:55:00.090Z,96656.17
2019-06-27T19:57:30.552Z,96668.06
2019-06-27T20:00:00.883Z,96670.13
2019-06-27T20:02:32.914Z,96669.08
2019-06-27T20:05:03.650Z,96674.78
2019-06-27T20:07:34.008Z,96674.65
2019-06-27T20:10:05.868Z,96682.30
2019-06-27T20:12:36.110Z,96680.28
2019-06-27T20:15:06.361Z,96678.52
2019-06-27T20:17:36.673Z,96675.50
2019-06-27T20:20:22.380Z,96686.93
2019-06-27T20:22:52.695Z,96683.36
2019-06-27T20:25:22.940Z,96675.81
2019-06-27T20:27:53.233Z,96682.84
2019-06-27T20:30:23.439Z,96685.34
2019-06-27T20:32:55.033Z,96688.77
2019-06-27T20:35:25.355Z,96683.26
2019-06-27T20:37:55.718Z,96684.84
2019-06-27T20:40:26.023Z,96686.20
2019-06-27T20:42:56.254Z,96686.45
2019-06-27T20:45:31.145Z,96689.84
2019-06-27T20:48:01.534Z,96684.84
2019-06-27T20:50:31.868Z,96692.75
2019-06-27T20:53:02.184Z,96697.25
2019-06-27T20:55:32.533Z,96702.22
2019-06-27T20:58:04.178Z,96698.19
2019-06-27T21:00:34.455Z,96708.16
2019-06-27T21:03:04.687Z,96707.64
2019-06-27T21:05:34.949Z,96709.08
2019-06-27T21:08:05.224Z,96706.41
2019-06-27T21:10:35.485Z,96708.66
2019-06-27T21:13:10.188Z,96713.80
2019-06-27T21:15:40.562Z,96720.33
2019-06-27T21:18:10.765Z,96716.16
2019-06-27T21:20:41.034Z,96714.33
2019-06-27T21:23:11.256Z,96722.66
2019-06-27T21:25:41.870Z,96723.20
2019-06-27T21:28:12.070Z,96723.17
2019-06-27T21:30:42.347Z,96720.02
2019-06-27T21:33:12.536Z,96722.43
2019-06-27T21:35:43.160Z,96721.08
2019-06-27T21:38:13.408Z,96715.47
2019-06-27T21:40:43.717Z,96721.91
2019-06-27T21:43:13.989Z,96715.20
2019-06-27T21:45:44.603Z,96713.72
2019-06-27T21:48:14.919Z,96716.23
2019-06-27T21:50:45.154Z,96719.88
2019-06-27T21:53:15.395Z,96722.38
2019-06-27T21:55:45.581Z,96722.19
2019-06-27T21:58:20.923Z,96722.96
2019-06-27T22:00:51.385Z,96726.45
2019-06-27T22:03:21.986Z,96732.03
2019-06-27T22:05:52.194Z,96729.88
2019-06-27T22:08:22.538Z,96731.48
2019-06-27T22:10:52.822Z,96733.73
2019-06-27T22:13:23.536Z,96733.88
2019-06-27T22:15:53.816Z,96741.77
2019-06-27T22:18:24.948Z,96745.10
2019-06-27T22:20:55.222Z,96748.38
2019-06-27T22:23:25.436Z,96742.24
2019-06-27T22:26:00.005Z,96752.86
2019-06-27T22:28:30.237Z,96747.91
2019-06-27T22:31:00.531Z,96745.73
2019-06-27T22:33:30.845Z,96743.03
2019-06-27T22:36:01.051Z,96740.05
2019-06-27T22:38:49.078Z,96741.73
2019-06-27T22:41:37.118Z,96739.88
2019-06-27T22:44:25.064Z,96747.30
2019-06-27T22:47:12.782Z,96741.56
2019-06-27T22:49:42.517Z,96744.73
2019-06-27T22:52:44.785Z,96746.33
2019-06-27T22:55:18.618Z,96750.88
2019-06-27T22:57:48.963Z,96745.34
2019-06-27T23:00:19.244Z,96750.31
2019-06-27T23:02:49.544Z,96754.37
2019-06-27T23:05:20.352Z,96754.42
2019-06-27T23:07:50.623Z,96755.75
2019-06-27T23:10:20.905Z,96750.44
2019-06-27T23:12:51.164Z,96755.01
2019-06-27T23:15:21.383Z,96752.34
2019-06-27T23:17:51.785Z,96754.84
2019-06-27T23:20:22.295Z,96750.75
2019-06-27T23:22:52.585Z,96754.77
2019-06-27T23:25:22.787Z,96758.95
2019-06-27T23:27:53.129Z,96763.56
2019-06-27T23:30:23.329Z,96755.42
2019-06-27T23:33:00.387Z,96750.84
2019-06-27T23:35:30.757Z,96758.16
2019-06-27T23:38:01.149Z,96758.70
2019-06-27T23:40:33.181Z,96752.53
2019-06-27T23:43:03.482Z,96747.16
2019-06-27T23:45:34.024Z,96748.84
2019-06-27T23:48:04.265Z,96743.52
2019-06-27T23:50:34.462Z,96748.13
2019-06-27T23:53:04.730Z,96747.09
2019-06-27T23:55:34.961Z,96750.07
2019-06-27T23:58:05.259Z,96751.76
